Weather at Goodfellow Air Force Base [CLOSED]

Public forecast

Using degrees Fahrenheit for public forecast. Weather courtesy of forecast.io.

Closest aviation weather report (METAR) to Goodfellow Air Force Base

Closest report is San Angelo Regional Mathis Field, 6.7 nm (12.3 km) SW.

2024/02/29 23:51 (retrieved 27 minutes ago)

KSJT 292351Z 00000KT 10SM CLR 10/00 A3014 RMK AO2 SLP210 T01000000 10106 20044 56012

Closest aviation forecast (TAF) to Goodfellow Air Force Base

Closest forecast is Randolph Air Force Base, 158.3 nm (293.3 km) SE.

2024/02/29 21:36 Ammendment (retrieved 3 hours ago)

AMD KRND 292120Z 2921/0123 06010KT 9999 VCSH BKN020 OVC040 510053 QNH3012INS TEMPO 2921/2923 1600 -DZ BR BKN007 OVC020 BECMG 0101/0102 VRB06KT 9999 VCSH BKN015 OVC040 510053 QNH3013INS BECMG 0105/0106 VRB06KT 9999 NSW BKN015 OVC040 510053 QNH3015INS BECMG 0110/0111 VRB06KT 9000 BR BKN010 BKN180 QNH3005INS BECMG 0114/0115 15007KT 9999 NSW FEW015 BKN030 QNH3005INS BECMG 0116/0117 15010KT 9999 SCT030 BKN250 QNH3005INS TX12/0117Z TN06/0112Z LAST NO AMDS AFT 0101 NEXT 0111